sensor_id;sensor_type;location;lat;lon;timestamp;pressure;altitude;pressure_sealevel;temperature;humidity
6094;BME280;19964;42.060;24.700;2022-11-20T00:01:29;96955.34;;;13.15;100.00
6094;BME280;19964;42.060;24.700;2022-11-20T00:03:57;96964.53;;;13.32;100.00
6094;BME280;19964;42.060;24.700;2022-11-20T00:06:25;96962.75;;;13.48;100.00
6094;BME280;19964;42.060;24.700;2022-11-20T00:08:56;96965.72;;;13.77;100.00
6094;BME280;19964;42.060;24.700;2022-11-20T00:11:25;96977.44;;;13.89;100.00
6094;BME280;19964;42.060;24.700;2022-11-20T00:13:53;96962.56;;;13.75;100.00
6094;BME280;19964;42.060;24.700;2022-11-20T00:16:25;96955.81;;;13.79;100.00
6094;BME280;19964;42.060;24.700;2022-11-20T00:18:52;96958.69;;;13.82;100.00
6094;BME280;19964;42.060;24.700;2022-11-20T00:21:21;96973.50;;;13.87;100.00
6094;BME280;19964;42.060;24.700;2022-11-20T00:23:49;96953.75;;;13.81;100.00
6094;BME280;19964;42.060;24.700;2022-11-20T00:26:19;96968.09;;;14.18;100.00
6094;BME280;19964;42.060;24.700;2022-11-20T00:28:49;96968.34;;;14.07;100.00
6094;BME280;19964;42.060;24.700;2022-11-20T00:31:17;96980.88;;;14.25;100.00
6094;BME280;19964;42.060;24.700;2022-11-20T00:33:44;96952.72;;;14.07;100.00
6094;BME280;19964;42.060;24.700;2022-11-20T00:36:13;96971.47;;;14.09;100.00
6094;BME280;19964;42.060;24.700;2022-11-20T00:38:40;96936.81;;;13.93;100.00
6094;BME280;19964;42.060;24.700;2022-11-20T00:41:09;96968.59;;;14.20;100.00
6094;BME280;19964;42.060;24.700;2022-11-20T00:43:38;96977.72;;;14.18;100.00
6094;BME280;19964;42.060;24.700;2022-11-20T00:46:07;96974.34;;;14.22;100.00
6094;BME280;19964;42.060;24.700;2022-11-20T00:48:34;96991.06;;;14.32;100.00
6094;BME280;19964;42.060;24.700;2022-11-20T00:51:01;96990.78;;;14.38;100.00
6094;BME280;19964;42.060;24.700;2022-11-20T00:53:27;96990.53;;;14.40;100.00
6094;BME280;19964;42.060;24.700;2022-11-20T00:55:55;96986.84;;;14.15;100.00
6094;BME280;19964;42.060;24.700;2022-11-20T00:58:22;96984.78;;;14.17;100.00
6094;BME280;19964;42.060;24.700;2022-11-20T01:00:51;96986.59;;;14.12;100.00
6094;BME280;19964;42.060;24.700;2022-11-20T01:03:18;96971.22;;;14.05;100.00
6094;BME280;19964;42.060;24.700;2022-11-20T01:05:45;96986.34;;;14.23;100.00
6094;BME280;19964;42.060;24.700;2022-11-20T01:08:12;96995.22;;;14.48;100.00
6094;BME280;19964;42.060;24.700;2022-11-20T01:10:39;96980.63;;;14.42;100.00
6094;BME280;19964;42.060;24.700;2022-11-20T01:13:06;96999.38;;;14.28;100.00
6094;BME280;19964;42.060;24.700;2022-11-20T01:15:51;96983.47;;;14.15;100.00
6094;BME280;19964;42.060;24.700;2022-11-20T01:18:18;96975.59;;;13.85;100.00
6094;BME280;19964;42.060;24.700;2022-11-20T01:20:45;96980.06;;;14.04;100.00
6094;BME280;19964;42.060;24.700;2022-11-20T01:23:12;96959.47;;;14.03;100.00
6094;BME280;19964;42.060;24.700;2022-11-20T01:25:41;96963.63;;;13.99;100.00
6094;BME280;19964;42.060;24.700;2022-11-20T01:28:08;96962.59;;;14.05;100.00
6094;BME280;19964;42.060;24.700;2022-11-20T01:30:35;96960.25;;;13.93;100.00
6094;BME280;19964;42.060;24.700;2022-11-20T01:33:03;96938.38;;;13.99;100.00
6094;BME280;19964;42.060;24.700;2022-11-20T01:35:30;96961.03;;;13.94;100.00
6094;BME280;19964;42.060;24.700;2022-11-20T01:37:57;96947.25;;;13.88;100.00
6094;BME280;19964;42.060;24.700;2022-11-20T01:40:23;96940.72;;;14.01;100.00
6094;BME280;19964;42.060;24.700;2022-11-20T01:42:55;96950.63;;;13.99;100.00
6094;BME280;19964;42.060;24.700;2022-11-20T01:46:06;96941.53;;;13.96;100.00
6094;BME280;19964;42.060;24.700;2022-11-20T01:48:44;96929.78;;;13.89;100.00
6094;BME280;19964;42.060;24.700;2022-11-20T01:51:19;96938.63;;;13.93;100.00
6094;BME280;19964;42.060;24.700;2022-11-20T01:53:47;96940.22;;;14.04;100.00
6094;BME280;19964;42.060;24.700;2022-11-20T01:56:15;96942.56;;;14.10;100.00
6094;BME280;19964;42.060;24.700;2022-11-20T01:58:47;96938.66;;;14.08;100.00
6094;BME280;19964;42.060;24.700;2022-11-20T02:01:15;96916.53;;;14.15;100.00
6094;BME280;19964;42.060;24.700;2022-11-20T02:03:43;96927.44;;;14.22;100.00
6094;BME280;19964;42.060;24.700;2022-11-20T02:06:16;96930.06;;;14.17;100.00
6094;BME280;19964;42.060;24.700;2022-11-20T02:08:45;96930.06;;;14.17;100.00
6094;BME280;19964;42.060;24.700;2022-11-20T02:11:12;96930.03;;;14.22;100.00
6094;BME280;19964;42.060;24.700;2022-11-20T02:13:39;96923.28;;;14.11;100.00
6094;BME280;19964;42.060;24.700;2022-11-20T02:16:10;96931.91;;;14.12;100.00
6094;BME280;19964;42.060;24.700;2022-11-20T02:18:38;96919.63;;;14.12;100.00
6094;BME280;19964;42.060;24.700;2022-11-20T02:21:11;96921.72;;;14.15;100.00
6094;BME280;19964;42.060;24.700;2022-11-20T02:23:53;96928.22;;;14.18;100.00
6094;BME280;19964;42.060;24.700;2022-11-20T02:26:22;96925.91;;;14.21;100.00
6094;BME280;19964;42.060;24.700;2022-11-20T02:28:50;96928.25;;;14.28;100.00
6094;BME280;19964;42.060;24.700;2022-11-20T02:31:17;96929.03;;;14.28;100.00
6094;BME280;19964;42.060;24.700;2022-11-20T02:33:43;96922.50;;;14.21;100.00
6094;BME280;19964;42.060;24.700;2022-11-20T02:36:15;96923.28;;;14.26;100.00
6094;BME280;19964;42.060;24.700;2022-11-20T02:38:43;96925.09;;;14.26;100.00
6094;BME280;19964;42.060;24.700;2022-11-20T02:41:11;96919.63;;;14.38;100.00
6094;BME280;19964;42.060;24.700;2022-11-20T02:43:38;96924.34;;;14.36;100.00
6094;BME280;19964;42.060;24.700;2022-11-20T02:46:06;96912.88;;;14.37;100.00
6094;BME280;19964;42.060;24.700;2022-11-20T02:48:33;96902.22;;;14.33;100.00
6094;BME280;19964;42.060;24.700;2022-11-20T02:51:00;96912.88;;;14.37;100.00
6094;BME280;19964;42.060;24.700;2022-11-20T02:53:27;96905.28;;;14.50;100.00
6094;BME280;19964;42.060;24.700;2022-11-20T02:55:54;96901.16;;;14.34;100.00
6094;BME280;19964;42.060;24.700;2022-11-20T02:58:23;96927.47;;;14.38;100.00
6094;BME280;19964;42.060;24.700;2022-11-20T03:00:49;96906.09;;;14.31;100.00
6094;BME280;19964;42.060;24.700;2022-11-20T03:03:16;96899.84;;;14.37;100.00
6094;BME280;19964;42.060;24.700;2022-11-20T03:05:43;96902.47;;;14.37;100.00
6094;BME280;19964;42.060;24.700;2022-11-20T03:08:10;96905.31;;;14.45;100.00
6094;BME280;19964;42.060;24.700;2022-11-20T03:10:37;96909.97;;;14.53;100.00
6094;BME280;19964;42.060;24.700;2022-11-20T03:13:04;96911.22;;;14.86;93.89
6094;BME280;19964;42.060;24.700;2022-11-20T03:15:32;96908.66;;;14.56;100.00
6094;BME280;19964;42.060;24.700;2022-11-20T03:17:58;96853.19;;;14.40;93.43
6094;BME280;19964;42.060;24.700;2022-11-20T03:20:25;96921.63;;;14.96;93.62
6094;BME280;19964;42.060;24.700;2022-11-20T03:22:53;96899.41;;;14.98;94.97
6094;BME280;19964;42.060;24.700;2022-11-20T03:25:20;96890.13;;;14.67;99.97
6094;BME280;19964;42.060;24.700;2022-11-20T03:27:47;96895.06;;;14.69;98.11
6094;BME280;19964;42.060;24.700;2022-11-20T03:30:14;96898.69;;;14.88;96.79
6094;BME280;19964;42.060;24.700;2022-11-20T03:32:42;96890.59;;;14.84;96.58
6094;BME280;19964;42.060;24.700;2022-11-20T03:35:10;96892.44;;;14.84;98.00
6094;BME280;19964;42.060;24.700;2022-11-20T03:37:36;96866.97;;;14.56;97.38
6094;BME280;19964;42.060;24.700;2022-11-20T03:40:05;96900.97;;;15.04;90.08
6094;BME280;19964;42.060;24.700;2022-11-20T03:42:33;96894.19;;;15.03;92.73
6094;BME280;19964;42.060;24.700;2022-11-20T03:45:11;96903.06;;;15.07;90.60
6094;BME280;19964;42.060;24.700;2022-11-20T03:47:38;96889.09;;;14.63;99.49
6094;BME280;19964;42.060;24.700;2022-11-20T03:50:08;96873.97;;;14.65;94.44
6094;BME280;19964;42.060;24.700;2022-11-20T03:52:35;96888.75;;;14.95;92.42
6094;BME280;19964;42.060;24.700;2022-11-20T03:55:02;96910.94;;;14.87;95.93
6094;BME280;19964;42.060;24.700;2022-11-20T03:57:29;96929.97;;;14.93;96.26
6094;BME280;19964;42.060;24.700;2022-11-20T03:59:55;96910.47;;;14.65;100.00
6094;BME280;19964;42.060;24.700;2022-11-20T04:02:22;96916.81;;;14.29;100.00
6094;BME280;19964;42.060;24.700;2022-11-20T04:04:49;96868.84;;;13.65;100.00
6094;BME280;19964;42.060;24.700;2022-11-20T04:07:17;96899.06;;;14.01;100.00
6094;BME280;19964;42.060;24.700;2022-11-20T04:09:44;96900.09;;;14.05;100.00
6094;BME280;19964;42.060;24.700;2022-11-20T04:12:11;96884.97;;;13.72;100.00
6094;BME280;19964;42.060;24.700;2022-11-20T04:14:38;96888.38;;;13.87;100.00
6094;BME280;19964;42.060;24.700;2022-11-20T04:17:04;96890.47;;;13.85;100.00
6094;BME280;19964;42.060;24.700;2022-11-20T04:19:31;96878.47;;;13.74;100.00
6094;BME280;19964;42.060;24.700;2022-11-20T04:21:58;96882.38;;;13.87;100.00
6094;BME280;19964;42.060;24.700;2022-11-20T04:24:26;96888.38;;;13.97;100.00
6094;BME280;19964;42.060;24.700;2022-11-20T04:26:53;96884.97;;;14.22;100.00
6094;BME280;19964;42.060;24.700;2022-11-20T04:29:20;96863.38;;;14.01;100.00
6094;BME280;19964;42.060;24.700;2022-11-20T04:31:47;96888.09;;;14.24;100.00
6094;BME280;19964;42.060;24.700;2022-11-20T04:34:14;96900.88;;;14.41;100.00
6094;BME280;19964;42.060;24.700;2022-11-20T04:36:40;96906.34;;;14.54;100.00
6094;BME280;19964;42.060;24.700;2022-11-20T04:39:13;96918.03;;;14.62;100.00
6094;BME280;19964;42.060;24.700;2022-11-20T04:41:42;96923.53;;;14.60;100.00
6094;BME280;19964;42.060;24.700;2022-11-20T04:44:09;96920.69;;;14.57;100.00
6094;BME280;19964;42.060;24.700;2022-11-20T04:46:38;96922.53;;;14.31;100.00
6094;BME280;19964;42.060;24.700;2022-11-20T04:49:06;96914.44;;;14.43;100.00
6094;BME280;19964;42.060;24.700;2022-11-20T04:51:33;96918.59;;;14.39;100.00
6094;BME280;19964;42.060;24.700;2022-11-20T04:54:00;96918.34;;;14.40;100.00
6094;BME280;19964;42.060;24.700;2022-11-20T04:56:27;96922.47;;;14.51;100.00
6094;BME280;19964;42.060;24.700;2022-11-20T04:58:55;96919.13;;;14.41;100.00
6094;BME280;19964;42.060;24.700;2022-11-20T05:01:23;96910.53;;;14.30;100.00
6094;BME280;19964;42.060;24.700;2022-11-20T05:03:51;96931.63;;;14.03;100.00
6094;BME280;19964;42.060;24.700;2022-11-20T05:06:19;96931.09;;;14.01;100.00
6094;BME280;19964;42.060;24.700;2022-11-20T05:08:48;96905.03;;;14.16;100.00
6094;BME280;19964;42.060;24.700;2022-11-20T05:11:17;96900.34;;;13.78;100.00
6094;BME280;19964;42.060;24.700;2022-11-20T05:13:44;96912.88;;;13.86;100.00
6094;BME280;19964;42.060;24.700;2022-11-20T05:16:13;96913.38;;;13.88;100.00
6094;BME280;19964;42.060;24.700;2022-11-20T05:18:41;96923.28;;;13.91;100.00
6094;BME280;19964;42.060;24.700;2022-11-20T05:21:08;96928.75;;;14.10;100.00
6094;BME280;19964;42.060;24.700;2022-11-20T05:23:36;96917.28;;;14.21;100.00
6094;BME280;19964;42.060;24.700;2022-11-20T05:26:03;96916.75;;;13.89;100.00
6094;BME280;19964;42.060;24.700;2022-11-20T05:28:31;96909.22;;;13.82;100.00
6094;BME280;19964;42.060;24.700;2022-11-20T05:31:04;96907.41;;;14.38;100.00
6094;BME280;19964;42.060;24.700;2022-11-20T05:33:32;96933.97;;;14.50;100.00
6094;BME280;19964;42.060;24.700;2022-11-20T05:35:59;96936.31;;;14.47;100.00
6094;BME280;19964;42.060;24.700;2022-11-20T05:38:26;96937.59;;;14.49;100.00
6094;BME280;19964;42.060;24.700;2022-11-20T05:40:53;96910.50;;;14.05;100.00
6094;BME280;19964;42.060;24.700;2022-11-20T05:43:20;96913.91;;;14.15;100.00
6094;BME280;19964;42.060;24.700;2022-11-20T05:45:52;96925.09;;;14.21;100.00
6094;BME280;19964;42.060;24.700;2022-11-20T05:48:19;96908.69;;;14.36;100.00
6094;BME280;19964;42.060;24.700;2022-11-20T05:50:47;96909.47;;;14.46;100.00
6094;BME280;19964;42.060;24.700;2022-11-20T05:53:14;96906.06;;;14.61;100.00
6094;BME280;19964;42.060;24.700;2022-11-20T05:55:41;96908.16;;;14.54;100.00
6094;BME280;19964;42.060;24.700;2022-11-20T05:58:08;96906.84;;;14.51;100.00
6094;BME280;19964;42.060;24.700;2022-11-20T06:00:34;96909.72;;;14.60;100.00
6094;BME280;19964;42.060;24.700;2022-11-20T06:03:01;96918.06;;;14.52;100.00
6094;BME280;19964;42.060;24.700;2022-11-20T06:05:28;96918.34;;;14.45;100.00
6094;BME280;19964;42.060;24.700;2022-11-20T06:07:56;96938.63;;;14.63;100.00
6094;BME280;19964;42.060;24.700;2022-11-20T06:10:23;96939.34;;;14.94;99.25
6094;BME280;19964;42.060;24.700;2022-11-20T06:12:50;96940.84;;;15.10;94.95
6094;BME280;19964;42.060;24.700;2022-11-20T06:15:17;96946.38;;;15.03;97.23
6094;BME280;19964;42.060;24.700;2022-11-20T06:17:44;96949.47;;;15.10;96.02
6094;BME280;19964;42.060;24.700;2022-11-20T06:20:11;96943.69;;;15.18;96.08
6094;BME280;19964;42.060;24.700;2022-11-20T06:22:37;96925.22;;;15.05;96.15
6094;BME280;19964;42.060;24.700;2022-11-20T06:25:06;96930.94;;;15.17;95.66
6094;BME280;19964;42.060;24.700;2022-11-20T06:27:33;96920.44;;;15.22;95.90
6094;BME280;19964;42.060;24.700;2022-11-20T06:30:03;96942.59;;;15.45;89.12
6094;BME280;19964;42.060;24.700;2022-11-20T06:32:33;96940.91;;;16.02;80.86
6094;BME280;19964;42.060;24.700;2022-11-20T06:35:00;96947.94;;;17.17;70.77
6094;BME280;19964;42.060;24.700;2022-11-20T06:37:26;96941.25;;;17.53;68.08
6094;BME280;19964;42.060;24.700;2022-11-20T06:39:53;96942.94;;;18.00;66.13
6094;BME280;19964;42.060;24.700;2022-11-20T06:42:21;96948.19;;;18.32;63.04
6094;BME280;19964;42.060;24.700;2022-11-20T06:44:48;96958.75;;;18.91;60.80
6094;BME280;19964;42.060;24.700;2022-11-20T06:47:15;96960.09;;;18.89;65.00
6094;BME280;19964;42.060;24.700;2022-11-20T06:49:41;96947.75;;;18.11;73.47
6094;BME280;19964;42.060;24.700;2022-11-20T06:52:08;96943.94;;;17.85;70.02
6094;BME280;19964;42.060;24.700;2022-11-20T06:54:35;96952.66;;;17.99;67.56
6094;BME280;19964;42.060;24.700;2022-11-20T06:57:02;96966.66;;;18.27;63.90
6094;BME280;19964;42.060;24.700;2022-11-20T06:59:30;96880.19;;;18.35;60.99
6094;BME280;19964;42.060;24.700;2022-11-20T07:01:57;96957.88;;;19.09;59.56
6094;BME280;19964;42.060;24.700;2022-11-20T07:04:24;96955.94;;;19.15;59.25
6094;BME280;19964;42.060;24.700;2022-11-20T07:06:50;96947.75;;;19.30;59.77
6094;BME280;19964;42.060;24.700;2022-11-20T07:09:17;96954.50;;;19.36;58.92
6094;BME280;19964;42.060;24.700;2022-11-20T07:11:44;96963.31;;;19.53;58.04
6094;BME280;19964;42.060;24.700;2022-11-20T07:14:11;96980.38;;;19.56;58.15
6094;BME280;19964;42.060;24.700;2022-11-20T07:16:39;96976.66;;;18.57;69.14
6094;BME280;19964;42.060;24.700;2022-11-20T07:19:06;96965.59;;;17.91;74.53
6094;BME280;19964;42.060;24.700;2022-11-20T07:21:33;96981.41;;;17.86;77.13
6094;BME280;19964;42.060;24.700;2022-11-20T07:24:00;96977.25;;;17.19;80.79
6094;BME280;19964;42.060;24.700;2022-11-20T07:26:26;96952.03;;;16.52;85.45
6094;BME280;19964;42.060;24.700;2022-11-20T07:28:53;96962.34;;;16.67;87.22
6094;BME280;19964;42.060;24.700;2022-11-20T07:31:20;96959.09;;;17.04;84.90
6094;BME280;19964;42.060;24.700;2022-11-20T07:33:49;96956.09;;;17.57;83.81
6094;BME280;19964;42.060;24.700;2022-11-20T07:36:16;96962.63;;;17.97;81.18
6094;BME280;19964;42.060;24.700;2022-11-20T07:38:43;96962.09;;;18.32;77.91
6094;BME280;19964;42.060;24.700;2022-11-20T07:41:09;96981.31;;;18.46;77.01
6094;BME280;19964;42.060;24.700;2022-11-20T07:43:39;96979.28;;;18.57;73.46
6094;BME280;19964;42.060;24.700;2022-11-20T07:46:06;96933.78;;;18.48;70.68
6094;BME280;19964;42.060;24.700;2022-11-20T07:48:33;96971.84;;;18.78;70.35
6094;BME280;19964;42.060;24.700;2022-11-20T07:51:01;96969.25;;;18.91;68.34
6094;BME280;19964;42.060;24.700;2022-11-20T07:53:28;96977.69;;;19.02;68.50
6094;BME280;19964;42.060;24.700;2022-11-20T07:55:59;96995.63;;;19.13;67.49
6094;BME280;19964;42.060;24.700;2022-11-20T07:58:26;96975.50;;;19.49;68.63
6094;BME280;19964;42.060;24.700;2022-11-20T08:00:55;96997.03;;;20.23;67.97
6094;BME280;19964;42.060;24.700;2022-11-20T08:03:22;96989.94;;;20.98;66.96
6094;BME280;19964;42.060;24.700;2022-11-20T08:05:49;96994.66;;;21.75;64.07
6094;BME280;19964;42.060;24.700;2022-11-20T08:08:17;97008.53;;;22.40;58.80
6094;BME280;19964;42.060;24.700;2022-11-20T08:10:44;97014.53;;;22.92;54.95
6094;BME280;19964;42.060;24.700;2022-11-20T08:13:10;96995.38;;;23.03;54.51
6094;BME280;19964;42.060;24.700;2022-11-20T08:15:55;96979.75;;;23.19;53.58
6094;BME280;19964;42.060;24.700;2022-11-20T08:18:21;96991.22;;;23.40;52.41
6094;BME280;19964;42.060;24.700;2022-11-20T08:20:48;96998.13;;;23.82;49.44
6094;BME280;19964;42.060;24.700;2022-11-20T08:23:16;96981.25;;;24.16;48.11
6094;BME280;19964;42.060;24.700;2022-11-20T08:25:43;96979.81;;;24.84;46.45
6094;BME280;19964;42.060;24.700;2022-11-20T08:28:10;96989.13;;;25.14;45.70
6094;BME280;19964;42.060;24.700;2022-11-20T08:30:37;96981.81;;;25.84;45.96
6094;BME280;19964;42.060;24.700;2022-11-20T08:33:05;96959.34;;;25.93;44.41
6094;BME280;19964;42.060;24.700;2022-11-20T08:35:34;96957.06;;;25.68;43.68
6094;BME280;19964;42.060;24.700;2022-11-20T08:38:01;96967.84;;;25.47;45.16
6094;BME280;19964;42.060;24.700;2022-11-20T08:40:29;96965.38;;;24.61;46.25
6094;BME280;19964;42.060;24.700;2022-11-20T08:42:56;96966.91;;;24.95;46.13
6094;BME280;19964;42.060;24.700;2022-11-20T08:45:23;96964.41;;;24.33;46.23
6094;BME280;19964;42.060;24.700;2022-11-20T08:47:50;96951.13;;;24.21;46.12
6094;BME280;19964;42.060;24.700;2022-11-20T08:50:17;96947.06;;;24.23;45.86
6094;BME280;19964;42.060;24.700;2022-11-20T08:52:44;96927.28;;;24.09;46.61
6094;BME280;19964;42.060;24.700;2022-11-20T08:55:11;96930.97;;;23.66;48.07
6094;BME280;19964;42.060;24.700;2022-11-20T08:57:39;96954.44;;;23.47;47.87
6094;BME280;19964;42.060;24.700;2022-11-20T09:00:07;96955.00;;;23.61;48.77
6094;BME280;19964;42.060;24.700;2022-11-20T09:02:34;96943.03;;;23.26;48.02
6094;BME280;19964;42.060;24.700;2022-11-20T09:05:01;96939.72;;;23.00;49.36
6094;BME280;19964;42.060;24.700;2022-11-20T09:07:29;96935.47;;;22.78;50.64
6094;BME280;19964;42.060;24.700;2022-11-20T09:09:56;96939.56;;;22.67;49.83
6094;BME280;19964;42.060;24.700;2022-11-20T09:12:23;96874.47;;;22.54;49.33
6094;BME280;19964;42.060;24.700;2022-11-20T09:14:51;96937.53;;;23.11;48.31
6094;BME280;19964;42.060;24.700;2022-11-20T09:17:18;96913.25;;;23.17;47.53
6094;BME280;19964;42.060;24.700;2022-11-20T09:19:45;96943.16;;;23.30;47.77
6094;BME280;19964;42.060;24.700;2022-11-20T09:22:12;96935.91;;;23.27;46.66
6094;BME280;19964;42.060;24.700;2022-11-20T09:24:39;96931.09;;;23.70;46.67
6094;BME280;19964;42.060;24.700;2022-11-20T09:27:06;96921.06;;;23.63;46.93
6094;BME280;19964;42.060;24.700;2022-11-20T09:29:32;96919.91;;;23.73;46.86
6094;BME280;19964;42.060;24.700;2022-11-20T09:32:00;96898.13;;;23.88;47.08
6094;BME280;19964;42.060;24.700;2022-11-20T09:34:27;96912.16;;;24.54;44.91
6094;BME280;19964;42.060;24.700;2022-11-20T09:36:55;96917.63;;;24.82;44.24
6094;BME280;19964;42.060;24.700;2022-11-20T09:39:22;96898.97;;;25.14;45.15
6094;BME280;19964;42.060;24.700;2022-11-20T09:42:04;96918.09;;;25.20;44.90
6094;BME280;19964;42.060;24.700;2022-11-20T09:44:50;96888.19;;;24.50;49.35
6094;BME280;19964;42.060;24.700;2022-11-20T09:47:30;96860.00;;;23.68;56.34
6094;BME280;19964;42.060;24.700;2022-11-20T09:50:12;96862.63;;;24.10;53.19
6094;BME280;19964;42.060;24.700;2022-11-20T09:52:54;96881.09;;;24.75;51.15
6094;BME280;19964;42.060;24.700;2022-11-20T09:55:25;96861.19;;;24.81;49.67
6094;BME280;19964;42.060;24.700;2022-11-20T09:57:54;96877.66;;;24.99;46.79
6094;BME280;19964;42.060;24.700;2022-11-20T10:00:21;96875.00;;;25.23;45.24
6094;BME280;19964;42.060;24.700;2022-11-20T10:02:54;96876.56;;;26.03;46.29
6094;BME280;19964;42.060;24.700;2022-11-20T10:05:26;96879.59;;;25.50;45.15
6094;BME280;19964;42.060;24.700;2022-11-20T10:08:07;96814.59;;;25.04;45.68
6094;BME280;19964;42.060;24.700;2022-11-20T10:10:43;96864.69;;;25.45;45.95
6094;BME280;19964;42.060;24.700;2022-11-20T10:13:26;96876.22;;;25.01;46.98
6094;BME280;19964;42.060;24.700;2022-11-20T10:16:12;96844.59;;;25.72;45.57
6094;BME280;19964;42.060;24.700;2022-11-20T10:18:56;96874.25;;;26.02;43.17
6094;BME280;19964;42.060;24.700;2022-11-20T10:21:32;96884.63;;;25.67;42.15
6094;BME280;19964;42.060;24.700;2022-11-20T10:27:01;96877.31;;;26.31;39.68
6094;BME280;19964;42.060;24.700;2022-11-20T10:29:34;96871.16;;;26.00;39.01
6094;BME280;19964;42.060;24.700;2022-11-20T10:32:06;96868.34;;;26.52;38.93
6094;BME280;19964;42.060;24.700;2022-11-20T10:34:44;96867.41;;;26.60;38.87
6094;BME280;19964;42.060;24.700;2022-11-20T10:37:17;96851.59;;;26.67;39.26
6094;BME280;19964;42.060;24.700;2022-11-20T10:39:50;96850.75;;;26.47;39.58
6094;BME280;19964;42.060;24.700;2022-11-20T10:42:24;96842.88;;;25.92;39.97
6094;BME280;19964;42.060;24.700;2022-11-20T10:44:58;96816.97;;;25.33;40.42
6094;BME280;19964;42.060;24.700;2022-11-20T10:47:28;96836.97;;;25.43;40.16
6094;BME280;19964;42.060;24.700;2022-11-20T10:50:02;96847.28;;;25.08;40.63
6094;BME280;19964;42.060;24.700;2022-11-20T10:52:34;96823.63;;;25.03;40.55
6094;BME280;19964;42.060;24.700;2022-11-20T10:55:11;96837.03;;;24.83;42.18
6094;BME280;19964;42.060;24.700;2022-11-20T10:57:52;96822.97;;;24.58;41.55
6094;BME280;19964;42.060;24.700;2022-11-20T11:00:24;96829.22;;;24.17;42.15
6094;BME280;19964;42.060;24.700;2022-11-20T11:02:52;96831.88;;;24.17;42.15
6094;BME280;19964;42.060;24.700;2022-11-20T11:05:35;96825.28;;;24.35;42.22
6094;BME280;19964;42.060;24.700;2022-11-20T11:08:05;96803.06;;;24.16;41.93
6094;BME280;19964;42.060;24.700;2022-11-20T11:10:39;96807.38;;;24.32;42.49
6094;BME280;19964;42.060;24.700;2022-11-20T11:13:20;96812.25;;;24.30;42.11
6094;BME280;19964;42.060;24.700;2022-11-20T11:15:47;96771.84;;;24.09;41.93
6094;BME280;19964;42.060;24.700;2022-11-20T11:18:23;96795.25;;;24.31;41.38
6094;BME280;19964;42.060;24.700;2022-11-20T11:20:53;96785.41;;;24.08;41.17
6094;BME280;19964;42.060;24.700;2022-11-20T11:23:31;96799.69;;;23.95;41.79
6094;BME280;19964;42.060;24.700;2022-11-20T11:26:00;96781.72;;;23.55;43.88
6094;BME280;19964;42.060;24.700;2022-11-20T11:28:27;96759.41;;;23.44;46.91
6094;BME280;19964;42.060;24.700;2022-11-20T11:30:54;96788.91;;;23.34;50.06
6094;BME280;19964;42.060;24.700;2022-11-20T11:33:23;96730.84;;;22.47;51.56
6094;BME280;19964;42.060;24.700;2022-11-20T11:35:53;96777.50;;;22.72;51.25
6094;BME280;19964;42.060;24.700;2022-11-20T11:38:28;96785.19;;;22.48;54.51
6094;BME280;19964;42.060;24.700;2022-11-20T11:40:56;96784.50;;;22.68;52.97
6094;BME280;19964;42.060;24.700;2022-11-20T11:43:25;96768.53;;;22.85;51.26
6094;BME280;19964;42.060;24.700;2022-11-20T11:46:28;96778.22;;;23.22;51.28
6094;BME280;19964;42.060;24.700;2022-11-20T11:48:59;96785.50;;;23.66;50.09
6094;BME280;19964;42.060;24.700;2022-11-20T11:51:34;96767.09;;;23.37;49.94
6094;BME280;19964;42.060;24.700;2022-11-20T11:54:09;96699.53;;;22.66;45.08
6094;BME280;19964;42.060;24.700;2022-11-20T11:56:37;96786.94;;;23.64;42.81
6094;BME280;19964;42.060;24.700;2022-11-20T11:59:06;96742.13;;;23.47;42.62
6094;BME280;19964;42.060;24.700;2022-11-20T12:01:41;96772.22;;;23.54;42.58
6094;BME280;19964;42.060;24.700;2022-11-20T12:04:16;96764.50;;;23.49;43.00
6094;BME280;19964;42.060;24.700;2022-11-20T12:07:04;96764.72;;;23.89;42.26
6094;BME280;19964;42.060;24.700;2022-11-20T12:09:39;96771.63;;;24.02;42.05
6094;BME280;19964;42.060;24.700;2022-11-20T12:12:11;96752.84;;;23.95;41.94
6094;BME280;19964;42.060;24.700;2022-11-20T12:14:45;96766.53;;;23.97;42.21
6094;BME280;19964;42.060;24.700;2022-11-20T12:17:13;96766.44;;;24.18;43.99
6094;BME280;19964;42.060;24.700;2022-11-20T12:19:40;96754.75;;;24.19;46.04
6094;BME280;19964;42.060;24.700;2022-11-20T12:22:17;96767.53;;;24.17;45.88
6094;BME280;19964;42.060;24.700;2022-11-20T12:24:56;96778.13;;;24.05;45.12
6094;BME280;19964;42.060;24.700;2022-11-20T12:27:44;96752.56;;;23.76;45.45
6094;BME280;19964;42.060;24.700;2022-11-20T12:30:15;96775.31;;;23.89;44.87
6094;BME280;19964;42.060;24.700;2022-11-20T12:35:44;96749.13;;;23.63;47.85
6094;BME280;19964;42.060;24.700;2022-11-20T12:38:31;96749.75;;;23.07;50.07
6094;BME280;19964;42.060;24.700;2022-11-20T12:41:07;96741.09;;;22.98;49.56
6094;BME280;19964;42.060;24.700;2022-11-20T12:43:43;96756.66;;;22.70;49.98
6094;BME280;19964;42.060;24.700;2022-11-20T12:46:34;96743.75;;;22.98;51.51
6094;BME280;19964;42.060;24.700;2022-11-20T12:49:19;96745.94;;;22.96;50.25
6094;BME280;19964;42.060;24.700;2022-11-20T12:52:01;96759.38;;;22.82;50.22
6094;BME280;19964;42.060;24.700;2022-11-20T12:54:46;96742.38;;;22.71;50.04
6094;BME280;19964;42.060;24.700;2022-11-20T12:57:22;96741.34;;;22.84;48.94
6094;BME280;19964;42.060;24.700;2022-11-20T13:00:08;96754.22;;;22.86;50.66
6094;BME280;19964;42.060;24.700;2022-11-20T13:02:46;96759.75;;;22.72;50.10
6094;BME280;19964;42.060;24.700;2022-11-20T13:05:24;96758.06;;;22.39;49.23
6094;BME280;19964;42.060;24.700;2022-11-20T13:07:55;96752.94;;;22.42;49.55
6094;BME280;19964;42.060;24.700;2022-11-20T13:10:31;96775.09;;;22.58;51.76
6094;BME280;19964;42.060;24.700;2022-11-20T13:13:04;96781.13;;;22.59;48.97
6094;BME280;19964;42.060;24.700;2022-11-20T13:15:48;96710.38;;;22.06;49.96